Time;durP1;ratioP1;P1;durP2;ratioP2;P2;SDS_P1;SDS_P2;PMS_P1;PMS_P2;Temp;Humidity;BMP_temperature;BMP_pressure;BME280_temperature;BME280_humidity;BME280_pressure;Samples;Min_cycle;Max_cycle;Signal;HPM_P1;HPM_P2
2023/07/26 00:01:51;;;;;;;12.63;5.63;;;12.40;99.90;;;;;;4977686;29;20026;-91
2023/07/26 00:04:16;;;;;;;13.77;6.57;;;12.40;99.90;;;;;;4956992;29;20051;-95
2023/07/26 00:06:42;;;;;;;15.52;5.43;;;12.40;99.90;;;;;;4965194;29;20402;-93
2023/07/26 00:09:08;;;;;;;12.73;5.43;;;12.40;99.90;;;;;;4947043;29;20031;-92
2023/07/26 00:11:35;;;;;;;10.90;5.82;;;12.40;99.90;;;;;;4974115;29;20031;-91
2023/07/26 00:14:03;;;;;;;9.13;4.63;;;12.40;99.90;;;;;;4979766;28;20032;-89
2023/07/26 00:16:30;;;;;;;9.82;5.05;;;12.40;99.90;;;;;;4960604;29;20047;-90
2023/07/26 00:18:56;;;;;;;10.55;5.43;;;12.30;99.90;;;;;;4969804;29;20275;-94
2023/07/26 00:21:22;;;;;;;14.15;5.97;;;12.30;99.90;;;;;;4969959;29;20023;-92
2023/07/26 00:23:47;;;;;;;14.90;5.18;;;12.20;99.90;;;;;;4967344;29;20086;-95
2023/07/26 00:26:13;;;;;;;9.20;5.07;;;12.20;99.90;;;;;;4944858;29;20039;-94
2023/07/26 00:28:38;;;;;;;12.15;5.13;;;12.20;99.90;;;;;;4961927;29;20087;-96
2023/07/26 00:31:05;;;;;;;14.93;5.45;;;12.20;99.90;;;;;;4966734;29;20102;-96
2023/07/26 00:33:30;;;;;;;11.95;5.75;;;12.20;99.90;;;;;;4966281;29;20500;-95
2023/07/26 00:35:56;;;;;;;11.20;5.53;;;12.10;99.90;;;;;;4945040;29;20039;-91
2023/07/26 00:38:22;;;;;;;8.30;4.80;;;12.10;99.90;;;;;;4943894;29;20034;-94
2023/07/26 00:40:47;;;;;;;11.45;5.22;;;12.10;99.90;;;;;;4944601;29;20035;-93
2023/07/26 00:43:13;;;;;;;10.82;5.53;;;12.10;99.90;;;;;;4931619;29;20602;-96
2023/07/26 00:45:42;;;;;;;12.75;5.47;;;12.00;99.90;;;;;;4920858;29;20493;-94
2023/07/26 00:48:09;;;;;;;11.07;5.28;;;12.00;99.90;;;;;;4939100;29;20034;-94
2023/07/26 00:50:36;;;;;;;16.88;5.50;;;12.00;99.90;;;;;;4920903;29;20131;-92
2023/07/26 00:53:02;;;;;;;9.38;4.38;;;11.90;99.90;;;;;;4937365;29;20055;-94
2023/07/26 00:55:28;;;;;;;13.45;5.55;;;11.90;99.90;;;;;;4921673;29;20035;-93
2023/07/26 00:57:55;;;;;;;11.15;5.32;;;11.80;99.90;;;;;;4920828;29;20072;-96
2023/07/26 01:00:21;;;;;;;11.25;5.00;;;11.70;99.90;;;;;;4942480;29;20024;-96
2023/07/26 01:02:47;;;;;;;14.90;6.30;;;11.70;99.90;;;;;;4926268;29;20095;-94
2023/07/26 01:05:13;;;;;;;14.02;6.07;;;11.70;99.90;;;;;;4927813;29;20126;-95
2023/07/26 01:08:00;;;;;;;9.02;4.57;;;11.60;99.90;;;;;;4940594;29;20095;-96
2023/07/26 01:10:38;;;;;;;11.07;5.65;;;11.60;99.90;;;;;;4922009;29;20031;-96
2023/07/26 01:13:12;;;;;;;11.68;5.47;;;11.60;99.90;;;;;;4921060;29;20047;-96
2023/07/26 01:15:40;;;;;;;12.60;4.90;;;11.60;99.90;;;;;;4944578;29;20027;-95
2023/07/26 01:18:09;;;;;;;12.13;5.45;;;11.60;99.90;;;;;;4943664;29;20030;-94
2023/07/26 01:20:34;;;;;;;9.35;4.72;;;11.60;99.90;;;;;;4941960;29;20024;-95
2023/07/26 01:23:00;;;;;;;10.50;5.03;;;11.50;99.90;;;;;;4926378;29;20111;-92
2023/07/26 01:25:26;;;;;;;10.57;5.13;;;11.50;99.90;;;;;;4923018;29;20074;-94
2023/07/26 01:27:51;;;;;;;11.43;5.38;;;11.50;99.90;;;;;;4920344;29;20099;-94
2023/07/26 01:30:19;;;;;;;9.20;4.65;;;11.50;99.90;;;;;;4920144;29;20126;-93
2023/07/26 01:32:50;;;;;;;13.77;5.55;;;11.50;99.90;;;;;;4920365;29;20058;-94
2023/07/26 01:35:20;;;;;;;12.60;5.35;;;11.40;99.90;;;;;;4920670;29;20030;-94
2023/07/26 01:37:46;;;;;;;11.45;5.13;;;11.40;99.90;;;;;;4921447;29;20032;-94
2023/07/26 01:40:13;;;;;;;8.95;4.88;;;11.30;99.90;;;;;;4921167;29;20030;-93
2023/07/26 01:42:41;;;;;;;13.13;5.72;;;11.40;99.90;;;;;;4922112;29;20040;-94
2023/07/26 01:45:09;;;;;;;16.85;4.90;;;11.40;99.90;;;;;;4938769;29;20047;-91
2023/07/26 01:47:34;;;;;;;10.35;4.60;;;11.40;99.90;;;;;;4947749;29;20067;-93
2023/07/26 01:50:00;;;;;;;8.70;4.30;;;11.40;99.90;;;;;;4937062;29;20023;-94
2023/07/26 01:52:26;;;;;;;10.40;5.40;;;11.40;99.90;;;;;;4938065;29;20056;-93
2023/07/26 01:54:52;;;;;;;14.38;5.90;;;11.40;99.90;;;;;;4928013;28;20022;-91
2023/07/26 01:57:22;;;;;;;7.57;4.32;;;11.30;99.90;;;;;;4949735;29;20477;-95
2023/07/26 01:59:48;;;;;;;10.98;4.82;;;11.20;99.90;;;;;;4957959;29;20019;-94
2023/07/26 02:02:13;;;;;;;9.02;4.57;;;11.20;99.90;;;;;;4957992;29;20031;-94
2023/07/26 02:04:39;;;;;;;7.60;4.15;;;11.10;99.90;;;;;;4943828;28;20477;-93
2023/07/26 02:07:04;;;;;;;11.38;5.15;;;11.10;99.90;;;;;;4947052;29;20066;-95
2023/07/26 02:09:30;;;;;;;11.90;5.00;;;11.00;99.90;;;;;;4960389;29;20066;-90
2023/07/26 02:11:56;;;;;;;14.82;5.63;;;11.00;99.90;;;;;;4962698;28;20035;-91
2023/07/26 02:14:22;;;;;;;10.07;4.60;;;11.00;99.90;;;;;;4980685;28;20031;-90
2023/07/26 02:16:47;;;;;;;10.85;4.78;;;10.90;99.90;;;;;;4961227;29;20087;-92
2023/07/26 02:19:13;;;;;;;12.30;5.15;;;10.90;99.90;;;;;;4977264;29;20023;-94
2023/07/26 02:21:38;;;;;;;10.27;4.75;;;10.90;99.90;;;;;;4973036;29;20047;-93
2023/07/26 02:24:04;;;;;;;10.77;5.03;;;10.90;99.90;;;;;;4968568;29;20031;-92
2023/07/26 02:26:30;;;;;;;10.65;4.40;;;10.90;99.90;;;;;;4963902;29;20493;-94
2023/07/26 02:28:56;;;;;;;9.80;4.45;;;10.90;99.90;;;;;;4964791;29;20059;-93
2023/07/26 02:31:22;;;;;;;9.45;4.60;;;10.90;99.90;;;;;;4945762;29;20469;-94
2023/07/26 02:33:47;;;;;;;10.05;5.35;;;10.90;99.90;;;;;;4944697;29;20032;-93
2023/07/26 02:36:13;;;;;;;10.07;4.45;;;10.90;99.90;;;;;;4959849;29;20028;-93
2023/07/26 02:38:39;;;;;;;9.85;4.75;;;10.90;99.90;;;;;;4963504;29;20028;-93
2023/07/26 02:41:04;;;;;;;9.82;4.47;;;10.90;99.90;;;;;;4963854;29;20063;-93
2023/07/26 02:43:30;;;;;;;9.43;4.25;;;10.80;99.90;;;;;;4966722;29;20122;-93
2023/07/26 02:45:55;;;;;;;10.50;4.95;;;10.80;99.90;;;;;;4954931;29;20039;-93
2023/07/26 02:48:21;;;;;;;11.80;4.90;;;10.80;99.90;;;;;;4962314;29;20098;-95
2023/07/26 02:50:47;;;;;;;10.73;5.07;;;10.80;99.90;;;;;;4963041;29;20019;-95
2023/07/26 02:53:12;;;;;;;10.25;4.25;;;10.80;99.90;;;;;;4979468;29;20023;-93
2023/07/26 02:55:42;;;;;;;9.85;4.68;;;10.80;99.90;;;;;;4962409;29;20062;-93
2023/07/26 02:58:08;;;;;;;14.05;5.45;;;10.80;99.90;;;;;;4960891;29;20031;-94
2023/07/26 03:00:34;;;;;;;10.23;5.40;;;10.80;99.90;;;;;;4977026;29;20116;-95
2023/07/26 03:02:59;;;;;;;11.98;5.43;;;10.80;99.90;;;;;;4963342;29;20043;-93
2023/07/26 03:05:25;;;;;;;12.00;5.05;;;10.80;99.90;;;;;;4962936;29;20023;-95
2023/07/26 03:07:50;;;;;;;13.95;5.68;;;10.80;99.90;;;;;;4959936;29;20023;-94
2023/07/26 03:10:17;;;;;;;12.57;4.97;;;10.80;99.90;;;;;;4977129;28;20087;-89
2023/07/26 03:12:43;;;;;;;13.43;5.50;;;10.80;99.90;;;;;;4965021;28;20016;-89
2023/07/26 03:15:09;;;;;;;9.20;5.18;;;10.70;99.90;;;;;;4964945;29;20032;-92
2023/07/26 03:17:35;;;;;;;11.88;5.22;;;10.50;99.90;;;;;;4959885;29;20027;-94
2023/07/26 03:20:00;;;;;;;9.02;5.10;;;10.50;99.90;;;;;;4960040;29;20116;-93
2023/07/26 03:22:26;;;;;;;11.90;5.32;;;10.40;99.90;;;;;;4969908;29;20031;-96
2023/07/26 03:24:52;;;;;;;12.52;5.10;;;10.40;99.90;;;;;;4957802;29;20032;-95
2023/07/26 03:27:17;;;;;;;12.05;4.97;;;10.40;99.90;;;;;;4956704;29;20043;-96
2023/07/26 03:29:43;;;;;;;13.15;4.90;;;10.40;99.90;;;;;;4979397;28;20031;-90
2023/07/26 03:32:09;;;;;;;13.68;5.00;;;10.40;99.90;;;;;;4963977;28;20303;-89
2023/07/26 03:34:34;;;;;;;11.57;4.60;;;10.50;99.90;;;;;;4981001;28;20019;-86
2023/07/26 03:37:01;;;;;;;12.75;4.95;;;10.50;99.90;;;;;;4964202;28;20023;-87
2023/07/26 03:39:27;;;;;;;13.75;5.10;;;10.40;99.90;;;;;;4964197;28;20067;-87
2023/07/26 03:41:53;;;;;;;12.07;4.82;;;10.40;99.90;;;;;;4964309;28;20023;-87
2023/07/26 03:44:19;;;;;;;10.10;4.75;;;10.30;99.90;;;;;;4964087;28;20038;-88
2023/07/26 03:46:45;;;;;;;10.63;4.50;;;10.30;99.90;;;;;;4963776;29;20055;-89
2023/07/26 03:49:12;;;;;;;9.20;4.68;;;10.30;99.90;;;;;;4959663;28;20035;-91
2023/07/26 03:51:37;;;;;;;9.00;4.93;;;10.20;99.90;;;;;;4957918;28;20035;-87
2023/07/26 03:54:03;;;;;;;13.27;4.95;;;10.30;99.90;;;;;;4957106;28;20039;-92
2023/07/26 03:56:29;;;;;;;9.38;4.57;;;10.20;99.90;;;;;;4952318;29;20091;-93
2023/07/26 03:58:55;;;;;;;9.90;4.65;;;10.20;99.90;;;;;;4954729;29;20043;-93
2023/07/26 04:01:20;;;;;;;10.02;4.45;;;10.20;99.90;;;;;;4954829;29;20037;-92
2023/07/26 04:03:46;;;;;;;10.13;4.80;;;10.20;99.90;;;;;;4950705;29;20024;-93
2023/07/26 04:06:12;;;;;;;9.45;3.60;;;10.10;99.90;;;;;;4949054;29;20039;-91
2023/07/26 04:08:39;;;;;;;10.25;4.72;;;10.10;99.90;;;;;;4953556;29;20063;-94
2023/07/26 04:11:05;;;;;;;7.15;4.30;;;10.10;99.90;;;;;;4952269;29;20028;-95
2023/07/26 04:13:31;;;;;;;7.75;3.80;;;10.00;99.90;;;;;;4951858;29;20043;-94
2023/07/26 04:15:57;;;;;;;11.65;5.03;;;10.00;99.90;;;;;;4958629;28;20044;-87
2023/07/26 04:18:22;;;;;;;13.18;4.13;;;10.00;99.90;;;;;;4961065;28;20012;-86
2023/07/26 04:20:48;;;;;;;10.25;4.50;;;10.00;99.90;;;;;;4960736;28;20035;-91
2023/07/26 04:23:13;;;;;;;10.95;3.92;;;10.00;99.90;;;;;;4958802;29;20051;-92
2023/07/26 04:25:39;;;;;;;10.38;4.85;;;10.00;99.90;;;;;;4956173;28;20051;-90
2023/07/26 04:28:06;;;;;;;14.75;5.43;;;10.00;99.90;;;;;;4949823;28;20094;-96
2023/07/26 04:30:31;;;;;;;13.65;4.70;;;10.00;99.90;;;;;;4957017;28;20036;-91
2023/07/26 04:32:57;;;;;;;11.65;4.30;;;9.90;99.90;;;;;;4955644;29;20027;-92
2023/07/26 04:35:23;;;;;;;11.15;4.80;;;9.80;99.90;;;;;;4956394;29;20054;-91
2023/07/26 04:37:49;;;;;;;12.13;4.32;;;9.80;99.90;;;;;;4957520;29;20032;-92
2023/07/26 04:40:15;;;;;;;9.02;4.38;;;9.80;99.90;;;;;;4958971;29;20031;-89
2023/07/26 04:42:40;;;;;;;8.45;4.70;;;9.80;99.90;;;;;;4957651;28;20059;-92
2023/07/26 04:45:06;;;;;;;11.60;4.80;;;9.70;99.90;;;;;;4956499;29;20099;-89
2023/07/26 04:47:33;;;;;;;13.20;4.63;;;9.70;99.90;;;;;;4957377;29;20099;-92
2023/07/26 04:49:59;;;;;;;9.60;4.30;;;9.80;99.90;;;;;;4955359;29;20026;-90
2023/07/26 04:52:25;;;;;;;13.18;4.95;;;9.80;99.90;;;;;;4956774;29;20051;-90
2023/07/26 04:54:51;;;;;;;11.60;4.88;;;9.90;99.90;;;;;;4959979;28;20020;-89
2023/07/26 04:57:16;;;;;;;11.23;4.50;;;10.00;99.90;;;;;;4959082;28;20019;-87
2023/07/26 04:59:42;;;;;;;11.63;5.07;;;9.90;99.90;;;;;;4960066;28;20032;-88
2023/07/26 05:02:08;;;;;;;12.18;4.55;;;9.90;99.90;;;;;;4959681;28;20027;-89
2023/07/26 05:04:35;;;;;;;6.88;4.03;;;9.90;99.90;;;;;;4957598;28;20032;-89
2023/07/26 05:07:02;;;;;;;10.63;4.15;;;10.00;99.90;;;;;;4954128;29;20052;-95
2023/07/26 05:09:28;;;;;;;11.27;4.70;;;10.10;99.90;;;;;;4954976;29;20099;-89
2023/07/26 05:11:53;;;;;;;7.05;3.70;;;10.10;99.90;;;;;;4955166;29;20075;-90
2023/07/26 05:14:20;;;;;;;11.43;3.85;;;10.10;99.90;;;;;;4957150;28;20035;-88
2023/07/26 05:16:46;;;;;;;9.55;4.60;;;10.20;99.90;;;;;;4956867;28;20072;-87
2023/07/26 05:19:11;;;;;;;9.13;4.35;;;10.30;99.90;;;;;;4959005;28;20220;-85
2023/07/26 05:21:38;;;;;;;9.68;4.50;;;10.30;99.90;;;;;;4958641;28;20024;-84
2023/07/26 05:24:03;;;;;;;9.00;4.43;;;10.30;99.90;;;;;;4959560;28;20008;-88
2023/07/26 05:26:29;;;;;;;10.90;4.53;;;10.20;99.90;;;;;;4957927;29;20150;-88
2023/07/26 05:28:55;;;;;;;7.00;3.90;;;10.30;99.90;;;;;;4958634;28;20036;-89
2023/07/26 05:31:21;;;;;;;11.63;4.93;;;10.30;99.90;;;;;;4958067;28;20028;-88
2023/07/26 05:33:46;;;;;;;13.70;4.63;;;10.40;99.90;;;;;;4957859;28;20051;-89
2023/07/26 05:36:12;;;;;;;7.93;4.07;;;10.50;99.90;;;;;;4948195;29;20038;-93
2023/07/26 05:38:38;;;;;;;8.18;4.57;;;10.60;99.90;;;;;;4946840;29;20218;-94
2023/07/26 05:41:06;;;;;;;12.60;4.97;;;10.70;99.90;;;;;;4949088;29;20377;-93
2023/07/26 05:43:32;;;;;;;10.23;4.20;;;10.80;99.90;;;;;;4948313;29;20043;-93
2023/07/26 05:46:00;;;;;;;9.05;4.05;;;10.90;99.90;;;;;;4955193;29;20054;-91
2023/07/26 05:48:26;;;;;;;14.65;4.95;;;11.00;99.90;;;;;;4957868;29;20008;-92
2023/07/26 05:50:52;;;;;;;8.25;4.20;;;11.10;99.90;;;;;;4957621;29;20059;-90
2023/07/26 05:53:17;;;;;;;10.10;3.78;;;11.20;99.90;;;;;;4957602;29;20103;-88
2023/07/26 05:55:43;;;;;;;10.98;4.45;;;11.20;99.90;;;;;;4958878;28;20028;-91
2023/07/26 05:58:09;;;;;;;10.18;4.80;;;11.30;99.90;;;;;;4952058;29;20031;-90
2023/07/26 06:00:34;;;;;;;9.98;4.50;;;11.40;99.90;;;;;;4945938;29;20481;-94
2023/07/26 06:03:00;;;;;;;9.15;4.20;;;11.50;99.90;;;;;;4945445;29;20035;-94
2023/07/26 06:05:27;;;;;;;11.48;4.18;;;11.50;99.90;;;;;;4950113;29;20124;-95
2023/07/26 06:07:52;;;;;;;11.73;5.30;;;11.60;99.90;;;;;;4950307;29;20118;-96
2023/07/26 06:10:18;;;;;;;13.88;4.55;;;11.80;99.90;;;;;;4942054;29;20071;-93
2023/07/26 06:12:44;;;;;;;13.43;4.22;;;11.80;99.90;;;;;;4941614;29;20028;-96
2023/07/26 06:15:09;;;;;;;11.25;4.50;;;11.90;99.90;;;;;;4938115;29;20033;-95
2023/07/26 06:17:35;;;;;;;11.27;4.57;;;12.00;99.90;;;;;;4941740;29;20020;-94
2023/07/26 06:20:01;;;;;;;13.15;5.07;;;12.10;99.90;;;;;;4945720;29;20028;-94
2023/07/26 06:22:28;;;;;;;11.77;4.07;;;12.10;99.90;;;;;;4960600;29;20028;-94
2023/07/26 06:24:54;;;;;;;11.00;5.13;;;12.20;99.90;;;;;;4971787;29;20038;-90
2023/07/26 06:27:28;;;;;;;10.57;4.68;;;12.20;99.90;;;;;;4965766;29;20039;-95
2023/07/26 06:29:54;;;;;;;10.90;4.75;;;12.30;99.90;;;;;;4963044;28;20118;-94
2023/07/26 06:32:20;;;;;;;14.00;4.53;;;12.30;99.90;;;;;;4943787;29;20054;-94
2023/07/26 06:34:45;;;;;;;10.52;3.90;;;12.30;99.90;;;;;;4940777;29;20543;-93
2023/07/26 06:37:12;;;;;;;12.68;5.25;;;12.30;99.90;;;;;;4941414;29;20040;-94
2023/07/26 06:39:37;;;;;;;9.30;3.90;;;12.40;99.90;;;;;;4943336;29;20046;-95
2023/07/26 06:42:03;;;;;;;8.93;3.97;;;12.40;99.90;;;;;;4948683;28;20016;-95
2023/07/26 06:44:29;;;;;;;9.88;4.68;;;12.40;99.90;;;;;;4960378;28;20042;-94
2023/07/26 06:46:55;;;;;;;8.85;4.55;;;12.40;99.90;;;;;;4960209;29;20042;-95
2023/07/26 06:49:20;;;;;;;9.73;4.53;;;12.40;99.90;;;;;;4945055;29;20042;-94
2023/07/26 06:51:46;;;;;;;9.98;4.53;;;12.40;99.90;;;;;;4957261;28;20039;-96
2023/07/26 06:54:11;;;;;;;10.73;4.65;;;12.40;99.90;;;;;;4959957;28;20039;-95
2023/07/26 06:56:37;;;;;;;8.80;4.40;;;12.50;99.90;;;;;;4962090;28;20103;-96
2023/07/26 06:59:08;;;;;;;14.27;4.93;;;12.50;99.90;;;;;;4959483;28;20043;-95
2023/07/26 07:01:34;;;;;;;12.48;5.15;;;12.50;99.90;;;;;;4960745;29;20027;-96
2023/07/26 07:03:59;;;;;;;9.95;4.53;;;12.60;99.90;;;;;;4968529;29;20063;-96
2023/07/26 07:06:25;;;;;;;14.68;5.15;;;12.70;99.90;;;;;;4957904;28;20043;-92
2023/07/26 07:08:51;;;;;;;12.98;4.60;;;12.90;99.90;;;;;;4960230;29;20019;-89
2023/07/26 07:11:16;;;;;;;10.88;5.18;;;13.00;99.90;;;;;;4955964;29;20046;-96
2023/07/26 07:13:42;;;;;;;10.80;4.95;;;13.20;99.90;;;;;;4972287;29;20071;-95
2023/07/26 07:16:08;;;;;;;8.63;5.00;;;13.30;99.90;;;;;;4972643;28;20019;-95
2023/07/26 07:18:35;;;;;;;13.07;5.25;;;13.50;99.90;;;;;;4958534;29;20019;-94
2023/07/26 07:21:01;;;;;;;8.48;4.45;;;13.60;99.90;;;;;;4968403;29;20055;-94
2023/07/26 07:23:28;;;;;;;10.52;4.47;;;13.70;99.90;;;;;;4958958;29;20023;-92
2023/07/26 07:25:54;;;;;;;12.27;5.72;;;13.80;99.90;;;;;;4957080;29;20123;-96
2023/07/26 07:28:19;;;;;;;9.57;4.00;;;13.90;99.90;;;;;;4969706;28;20079;-96
2023/07/26 07:30:46;;;;;;;12.23;4.70;;;14.10;99.90;;;;;;4954144;28;20027;-88
2023/07/26 07:33:15;;;;;;;10.95;5.43;;;14.20;99.90;;;;;;4963927;28;20034;-88
2023/07/26 07:35:41;;;;;;;10.25;4.80;;;14.30;99.90;;;;;;4964135;28;20026;-91
2023/07/26 07:38:06;;;;;;;10.65;5.07;;;14.50;99.90;;;;;;4978152;28;20015;-95
2023/07/26 07:40:32;;;;;;;9.45;5.05;;;14.60;99.90;;;;;;4955359;29;20047;-94
2023/07/26 07:42:58;;;;;;;13.05;4.97;;;14.70;99.90;;;;;;4953901;29;20059;-93
2023/07/26 07:45:24;;;;;;;13.40;5.45;;;14.70;99.90;;;;;;4969192;28;20024;-89
2023/07/26 07:47:50;;;;;;;11.55;4.85;;;14.80;99.90;;;;;;4961477;28;20061;-87
2023/07/26 07:50:17;;;;;;;13.95;5.68;;;14.80;99.90;;;;;;4980519;28;20079;-92
2023/07/26 07:52:44;;;;;;;9.65;4.30;;;14.80;99.90;;;;;;4963332;28;20051;-90
2023/07/26 07:55:10;;;;;;;14.98;4.85;;;14.80;99.90;;;;;;4963914;28;20116;-87
2023/07/26 07:57:36;;;;;;;11.15;5.00;;;14.80;99.90;;;;;;4979136;28;20091;-91
2023/07/26 08:00:03;;;;;;;11.65;4.20;;;14.70;99.90;;;;;;4959194;29;20023;-95
2023/07/26 08:02:30;;;;;;;10.73;4.15;;;14.70;99.90;;;;;;4942437;29;20043;-96
2023/07/26 08:04:56;;;;;;;10.05;4.35;;;14.70;99.90;;;;;;4953986;28;20120;-93
2023/07/26 08:07:25;;;;;;;10.32;4.82;;;14.70;99.90;;;;;;4979018;28;20027;-94
2023/07/26 08:09:51;;;;;;;9.95;5.55;;;14.70;99.90;;;;;;4954365;28;20103;-91
2023/07/26 08:12:17;;;;;;;13.38;4.90;;;14.70;99.90;;;;;;4952777;29;20039;-96
2023/07/26 08:14:50;;;;;;;12.73;5.20;;;14.70;99.90;;;;;;4974290;28;20079;-94
2023/07/26 08:20:46;;;;;;;12.85;5.72;;;14.80;99.90;;;;;;4977769;28;20067;-91
2023/07/26 08:23:14;;;;;;;8.70;5.07;;;14.90;99.90;;;;;;4976446;28;20039;-92
2023/07/26 08:25:41;;;;;;;9.93;4.78;;;15.00;99.90;;;;;;4977901;28;20103;-89
2023/07/26 08:28:08;;;;;;;8.35;4.78;;;15.20;99.90;;;;;;4962840;28;20022;-87
2023/07/26 08:30:35;;;;;;;12.13;5.03;;;15.40;99.90;;;;;;4963190;28;20026;-92
2023/07/26 08:33:01;;;;;;;8.43;4.28;;;15.50;99.90;;;;;;4963116;28;20027;-93
2023/07/26 08:35:28;;;;;;;9.25;4.63;;;15.70;99.90;;;;;;4963141;28;20018;-90
2023/07/26 08:37:57;;;;;;;8.57;4.75;;;15.80;99.90;;;;;;4979881;28;20143;-89
2023/07/26 08:40:24;;;;;;;11.00;4.63;;;16.00;99.90;;;;;;4959230;28;20030;-91
2023/07/26 08:42:50;;;;;;;11.13;4.47;;;16.20;99.90;;;;;;4960772;28;20036;-89
2023/07/26 08:45:17;;;;;;;9.52;4.28;;;16.40;99.90;;;;;;4971046;28;20083;-89
2023/07/26 08:47:44;;;;;;;11.98;4.55;;;16.50;99.90;;;;;;4979817;28;20079;-91
2023/07/26 08:50:11;;;;;;;8.30;4.38;;;16.70;99.90;;;;;;4959317;28;20027;-89
2023/07/26 08:52:38;;;;;;;10.43;4.25;;;16.80;99.90;;;;;;4979010;28;20035;-88
2023/07/26 08:55:06;;;;;;;9.43;4.07;;;17.00;99.90;;;;;;4963440;28;20026;-90
2023/07/26 08:57:38;;;;;;;8.70;4.00;;;17.20;99.90;;;;;;4961901;29;20051;-95
2023/07/26 09:00:11;;;;;;;7.40;3.67;;;17.40;99.90;;;;;;4961926;29;20019;-93
2023/07/26 09:02:56;;;;;;;9.07;4.45;;;17.50;99.90;;;;;;4979065;28;20025;-94
2023/07/26 09:05:45;;;;;;;8.05;3.90;;;17.60;99.90;;;;;;4976641;28;20075;-94
2023/07/26 09:08:14;;;;;;;10.45;4.25;;;17.80;99.90;;;;;;4978226;28;20119;-90
2023/07/26 09:10:46;;;;;;;9.02;4.20;;;17.90;99.90;;;;;;4962656;28;20094;-89
2023/07/26 09:13:14;;;;;;;9.75;4.45;;;18.10;99.90;;;;;;4952294;28;20055;-96
2023/07/26 09:15:43;;;;;;;7.05;3.75;;;18.10;99.90;;;;;;4959059;28;20020;-94
2023/07/26 09:18:17;;;;;;;9.15;4.22;;;18.20;99.90;;;;;;4978433;28;20074;-90
2023/07/26 09:20:47;;;;;;;12.57;4.32;;;18.40;99.90;;;;;;4976533;28;20047;-92
2023/07/26 09:23:17;;;;;;;8.77;4.63;;;18.50;99.90;;;;;;4946205;28;20015;-90
2023/07/26 09:25:52;;;;;;;8.48;3.88;;;18.70;99.90;;;;;;4960508;28;20294;-94
2023/07/26 09:28:17;;;;;;;9.82;4.13;;;18.80;99.90;;;;;;4973022;28;20035;-92
2023/07/26 09:30:50;;;;;;;8.95;4.35;;;18.90;99.10;;;;;;4973789;28;20046;-94
2023/07/26 09:33:16;;;;;;;6.45;3.60;;;19.00;98.40;;;;;;4974868;28;20007;-92
2023/07/26 09:35:46;;;;;;;8.55;4.10;;;19.20;97.80;;;;;;4970422;29;20090;-96
2023/07/26 09:38:42;;;;;;;11.40;3.80;;;19.30;96.70;;;;;;4959360;29;20031;-95
2023/07/26 09:41:24;;;;;;;7.80;3.95;;;19.50;95.80;;;;;;4959035;29;20280;-95
2023/07/26 09:43:51;;;;;;;6.80;4.03;;;19.60;94.20;;;;;;4951040;28;20051;-91
2023/07/26 09:46:24;;;;;;;7.03;4.03;;;19.70;93.40;;;;;;4950404;28;20028;-92
2023/07/26 09:49:02;;;;;;;8.30;3.95;;;19.80;92.80;;;;;;4962151;28;20039;-95
2023/07/26 09:51:38;;;;;;;7.20;3.97;;;20.00;92.60;;;;;;4937619;28;20027;-95
2023/07/26 09:54:05;;;;;;;7.65;4.07;;;20.10;92.10;;;;;;4966921;28;20044;-95
2023/07/26 09:56:33;;;;;;;7.07;3.80;;;20.20;91.60;;;;;;4960208;28;20009;-94
2023/07/26 09:59:00;;;;;;;8.13;3.63;;;20.40;91.10;;;;;;4962735;28;20031;-92
2023/07/26 10:01:29;;;;;;;7.80;3.78;;;20.60;90.80;;;;;;4949883;29;20079;-94
2023/07/26 10:03:58;;;;;;;8.07;3.50;;;20.70;90.40;;;;;;4956976;28;20043;-94
2023/07/26 10:06:24;;;;;;;5.97;3.88;;;20.80;89.40;;;;;;4971697;28;20051;-94
2023/07/26 10:08:51;;;;;;;5.43;3.10;;;21.00;89.00;;;;;;4957867;29;20095;-95
2023/07/26 10:11:21;;;;;;;5.70;3.53;;;21.10;87.40;;;;;;4969945;28;20039;-95
2023/07/26 10:13:48;;;;;;;6.67;3.37;;;21.20;86.50;;;;;;4956209;29;20031;-95
2023/07/26 10:16:14;;;;;;;9.15;4.05;;;21.40;86.10;;;;;;4950393;29;20543;-94
2023/07/26 10:18:41;;;;;;;7.13;3.40;;;21.60;84.50;;;;;;4938782;29;20028;-95
2023/07/26 10:21:08;;;;;;;11.13;3.00;;;21.70;82.70;;;;;;4943955;29;20036;-96
2023/07/26 10:23:34;;;;;;;8.18;4.13;;;21.90;81.30;;;;;;4935638;29;20027;-95
2023/07/26 10:26:04;;;;;;;7.13;3.88;;;22.00;79.90;;;;;;4949814;28;20043;-95
2023/07/26 10:28:33;;;;;;;5.18;2.78;;;22.20;79.10;;;;;;4948408;29;20122;-93
2023/07/26 10:31:00;;;;;;;6.07;3.25;;;22.30;77.00;;;;;;4949822;29;20035;-93
2023/07/26 10:36:07;;;;;;;5.55;2.90;;;22.70;75.80;;;;;;5517042;23;20062;-93
2023/07/26 10:38:38;;;;;;;3.90;2.72;;;22.80;74.80;;;;;;4969148;28;20377;-93
2023/07/26 10:41:27;;;;;;;7.78;2.97;;;22.80;73.40;;;;;;4977244;28;20038;-93
2023/07/26 10:44:09;;;;;;;4.97;2.63;;;22.90;73.10;;;;;;4984942;28;20031;-90
2023/07/26 10:47:00;;;;;;;5.85;3.00;;;22.90;71.70;;;;;;4966850;28;20050;-91
2023/07/26 10:49:28;;;;;;;5.47;3.00;;;23.00;70.70;;;;;;4964274;28;20049;-96
2023/07/26 10:51:58;;;;;;;6.90;2.90;;;22.90;70.70;;;;;;4964174;28;20058;-94
2023/07/26 10:54:43;;;;;;;;;;;22.90;70.00;;;;;;4963561;28;20031;-95
2023/07/26 10:57:17;;;;;;;6.75;3.10;;;22.90;69.90;;;;;;4982673;28;19906;-95
2023/07/26 10:59:59;;;;;;;5.57;3.15;;;22.90;69.20;;;;;;4963156;28;20123;-95
2023/07/26 11:02:45;;;;;;;6.60;3.10;;;22.80;68.50;;;;;;4964152;28;20039;-94
2023/07/26 11:05:19;;;;;;;4.75;2.92;;;22.60;69.00;;;;;;4961691;28;20031;-91
2023/07/26 11:08:01;;;;;;;7.47;3.67;;;22.60;69.10;;;;;;4961681;28;20058;-94
2023/07/26 11:10:31;;;;;;;7.43;3.38;;;22.50;69.60;;;;;;4978349;28;20027;-94
2023/07/26 11:13:16;;;;;;;5.43;3.17;;;22.60;70.00;;;;;;4961870;28;20058;-94
2023/07/26 11:15:46;;;;;;;4.85;2.83;;;22.70;70.00;;;;;;4939854;29;20064;-93
2023/07/26 11:18:13;;;;;;;11.82;3.75;;;22.70;70.10;;;;;;4925745;29;20036;-96
2023/07/26 11:20:52;;;;;;;9.13;3.20;;;22.80;70.20;;;;;;4923746;29;20023;-95
2023/07/26 11:23:30;;;;;;;5.15;2.90;;;22.90;70.30;;;;;;4924406;29;20036;-94
2023/07/26 11:25:59;;;;;;;3.95;2.40;;;22.90;69.00;;;;;;4939914;29;20031;-96
2023/07/26 11:28:30;;;;;;;5.05;3.17;;;23.00;68.50;;;;;;4940682;29;20032;-94
2023/07/26 11:30:58;;;;;;;6.40;3.33;;;23.20;68.20;;;;;;4946826;29;20047;-93
2023/07/26 11:33:35;;;;;;;5.78;3.30;;;23.30;67.90;;;;;;4936115;29;20035;-96
2023/07/26 11:36:07;;;;;;;9.95;3.92;;;23.20;66.40;;;;;;4918278;29;20047;-95
2023/07/26 11:38:33;;;;;;;6.00;3.22;;;23.20;66.90;;;;;;4938092;29;20052;-95
2023/07/26 11:40:59;;;;;;;4.90;2.92;;;23.30;66.70;;;;;;4953237;29;20035;-93
2023/07/26 11:43:28;;;;;;;5.45;3.08;;;23.30;67.00;;;;;;4953522;29;20039;-94
2023/07/26 11:45:54;;;;;;;6.15;3.42;;;23.50;66.80;;;;;;4954843;29;20027;-96
2023/07/26 11:48:21;;;;;;;11.65;3.65;;;23.50;66.20;;;;;;4938505;28;20095;-90
2023/07/26 11:50:47;;;;;;;5.75;3.22;;;23.40;65.40;;;;;;4963267;29;20035;-94
2023/07/26 11:53:14;;;;;;;6.15;3.50;;;23.30;66.20;;;;;;4960092;29;20110;-95
2023/07/26 11:55:42;;;;;;;6.88;3.03;;;23.40;66.30;;;;;;4948627;29;20028;-94
2023/07/26 11:58:12;;;;;;;6.32;4.00;;;23.50;66.40;;;;;;4935026;29;20027;-96
2023/07/26 12:00:46;;;;;;;5.63;3.50;;;23.70;66.00;;;;;;4957808;29;20031;-93
2023/07/26 12:03:12;;;;;;;5.13;2.75;;;23.70;65.50;;;;;;4928159;28;20189;-94
2023/07/26 12:05:42;;;;;;;6.70;3.55;;;23.80;65.20;;;;;;4944724;29;20040;-90
2023/07/26 12:08:08;;;;;;;;;;;23.90;65.20;;;;;;4945929;28;20016;-88
2023/07/26 12:10:40;;;;;;;8.75;3.00;;;24.10;64.90;;;;;;4964854;28;19927;-88
2023/07/26 12:13:11;;;;;;;7.47;3.08;;;24.10;63.60;;;;;;4964713;28;20047;-88
2023/07/26 12:15:58;;;;;;;5.25;3.25;;;24.10;62.90;;;;;;4964150;28;20030;-93
2023/07/26 12:18:25;;;;;;;4.57;2.90;;;24.30;63.10;;;;;;4962900;28;20240;-94
2023/07/26 12:20:56;;;;;;;4.68;2.97;;;24.50;62.80;;;;;;4960979;28;20012;-92
2023/07/26 12:23:22;;;;;;;6.57;3.22;;;24.60;61.30;;;;;;4980482;28;20035;-89
2023/07/26 12:25:52;;;;;;;4.85;2.75;;;24.70;60.70;;;;;;4955144;29;20058;-88
2023/07/26 12:28:18;;;;;;;;;;;24.60;59.60;;;;;;4944188;29;20056;-94
2023/07/26 12:30:53;;;;;;;7.80;3.03;;;24.60;59.30;;;;;;4961313;29;19937;-95
2023/07/26 12:33:18;;;;;;;4.57;3.08;;;24.60;59.90;;;;;;4961360;29;20027;-94
2023/07/26 12:35:44;;;;;;;5.32;3.10;;;24.70;60.10;;;;;;4973004;28;20074;-94
2023/07/26 12:38:14;;;;;;;4.03;3.00;;;24.80;60.40;;;;;;4944932;29;20030;-94
2023/07/26 12:40:40;;;;;;;3.92;2.88;;;24.80;60.80;;;;;;4945389;29;20031;-94
2023/07/26 12:43:27;;;;;;;5.13;3.38;;;24.60;60.20;;;;;;4957065;28;20019;-91
2023/07/26 12:45:58;;;;;;;4.95;3.10;;;24.50;60.50;;;;;;4961392;29;20053;-92
2023/07/26 12:48:25;;;;;;;4.80;3.20;;;24.40;60.60;;;;;;4947815;28;20031;-95
2023/07/26 12:50:54;;;;;;;6.68;3.63;;;24.50;61.10;;;;;;4941834;29;20035;-95
2023/07/26 12:53:21;;;;;;;6.10;2.92;;;24.60;61.50;;;;;;4927424;29;20062;-95